sensor_id;sensor_type;location;lat;lon;timestamp;P1;durP1;ratioP1;P2;durP2;ratioP2
16354;SDS011;8287;51.644;8.494;2023-02-25T00:01:38;41.08;;;38.85;;
16354;SDS011;8287;51.644;8.494;2023-02-25T00:04:06;38.45;;;35.80;;
16354;SDS011;8287;51.644;8.494;2023-02-25T00:06:33;49.88;;;46.88;;
16354;SDS011;8287;51.644;8.494;2023-02-25T00:09:00;37.10;;;34.78;;
16354;SDS011;8287;51.644;8.494;2023-02-25T00:11:27;40.40;;;37.63;;
16354;SDS011;8287;51.644;8.494;2023-02-25T00:13:54;45.10;;;41.53;;
16354;SDS011;8287;51.644;8.494;2023-02-25T00:16:21;42.25;;;39.88;;
16354;SDS011;8287;51.644;8.494;2023-02-25T00:18:52;39.85;;;37.30;;
16354;SDS011;8287;51.644;8.494;2023-02-25T00:21:21;41.38;;;37.72;;
16354;SDS011;8287;51.644;8.494;2023-02-25T00:23:49;42.70;;;40.33;;
16354;SDS011;8287;51.644;8.494;2023-02-25T00:26:17;41.83;;;38.30;;
16354;SDS011;8287;51.644;8.494;2023-02-25T00:28:45;38.67;;;36.47;;
16354;SDS011;8287;51.644;8.494;2023-02-25T00:31:13;40.75;;;38.10;;
16354;SDS011;8287;51.644;8.494;2023-02-25T00:33:42;41.17;;;37.42;;
16354;SDS011;8287;51.644;8.494;2023-02-25T00:36:10;37.40;;;35.10;;
16354;SDS011;8287;51.644;8.494;2023-02-25T00:38:40;38.30;;;36.17;;
16354;SDS011;8287;51.644;8.494;2023-02-25T00:41:07;40.25;;;37.40;;
16354;SDS011;8287;51.644;8.494;2023-02-25T00:43:36;46.22;;;43.65;;
16354;SDS011;8287;51.644;8.494;2023-02-25T00:46:03;35.97;;;33.72;;
16354;SDS011;8287;51.644;8.494;2023-02-25T00:48:30;41.20;;;38.17;;
16354;SDS011;8287;51.644;8.494;2023-02-25T00:50:58;41.53;;;38.90;;
16354;SDS011;8287;51.644;8.494;2023-02-25T00:53:30;40.55;;;37.90;;
16354;SDS011;8287;51.644;8.494;2023-02-25T00:55:58;39.60;;;36.80;;
16354;SDS011;8287;51.644;8.494;2023-02-25T00:58:25;37.85;;;35.35;;
16354;SDS011;8287;51.644;8.494;2023-02-25T01:00:52;38.28;;;36.22;;
16354;SDS011;8287;51.644;8.494;2023-02-25T01:03:19;36.85;;;34.38;;
16354;SDS011;8287;51.644;8.494;2023-02-25T01:05:45;39.13;;;36.33;;
16354;SDS011;8287;51.644;8.494;2023-02-25T01:08:15;35.17;;;32.95;;
16354;SDS011;8287;51.644;8.494;2023-02-25T01:10:42;39.55;;;36.88;;
16354;SDS011;8287;51.644;8.494;2023-02-25T01:13:10;35.03;;;32.53;;
16354;SDS011;8287;51.644;8.494;2023-02-25T01:15:37;37.22;;;35.03;;
16354;SDS011;8287;51.644;8.494;2023-02-25T01:18:04;38.15;;;35.85;;
16354;SDS011;8287;51.644;8.494;2023-02-25T01:20:31;36.35;;;34.15;;
16354;SDS011;8287;51.644;8.494;2023-02-25T01:23:02;39.47;;;37.13;;
16354;SDS011;8287;51.644;8.494;2023-02-25T01:25:29;42.63;;;39.67;;
16354;SDS011;8287;51.644;8.494;2023-02-25T01:27:55;37.55;;;35.03;;
16354;SDS011;8287;51.644;8.494;2023-02-25T01:30:24;33.05;;;31.25;;
16354;SDS011;8287;51.644;8.494;2023-02-25T01:32:51;32.72;;;31.02;;
16354;SDS011;8287;51.644;8.494;2023-02-25T01:35:17;39.10;;;35.92;;
16354;SDS011;8287;51.644;8.494;2023-02-25T01:37:44;37.88;;;35.80;;
16354;SDS011;8287;51.644;8.494;2023-02-25T01:40:13;41.80;;;38.63;;
16354;SDS011;8287;51.644;8.494;2023-02-25T01:42:41;37.42;;;35.53;;
16354;SDS011;8287;51.644;8.494;2023-02-25T01:48:08;34.90;;;32.78;;
16354;SDS011;8287;51.644;8.494;2023-02-25T01:50:41;35.58;;;33.35;;
16354;SDS011;8287;51.644;8.494;2023-02-25T01:53:12;38.08;;;34.83;;
16354;SDS011;8287;51.644;8.494;2023-02-25T01:55:41;37.78;;;35.40;;
16354;SDS011;8287;51.644;8.494;2023-02-25T01:58:08;38.85;;;36.65;;
16354;SDS011;8287;51.644;8.494;2023-02-25T02:00:38;37.05;;;34.38;;
16354;SDS011;8287;51.644;8.494;2023-02-25T02:03:05;33.70;;;32.25;;
16354;SDS011;8287;51.644;8.494;2023-02-25T02:05:41;34.85;;;33.15;;
16354;SDS011;8287;51.644;8.494;2023-02-25T02:08:20;36.80;;;34.38;;
16354;SDS011;8287;51.644;8.494;2023-02-25T02:10:48;38.92;;;36.30;;
16354;SDS011;8287;51.644;8.494;2023-02-25T02:13:15;37.60;;;35.40;;
16354;SDS011;8287;51.644;8.494;2023-02-25T02:15:45;37.65;;;35.00;;
16354;SDS011;8287;51.644;8.494;2023-02-25T02:18:19;38.03;;;35.92;;
16354;SDS011;8287;51.644;8.494;2023-02-25T02:20:50;34.95;;;32.85;;
16354;SDS011;8287;51.644;8.494;2023-02-25T02:23:35;35.78;;;33.42;;
16354;SDS011;8287;51.644;8.494;2023-02-25T02:26:31;36.88;;;34.80;;
16354;SDS011;8287;51.644;8.494;2023-02-25T02:32:18;38.47;;;35.55;;
16354;SDS011;8287;51.644;8.494;2023-02-25T02:34:54;39.88;;;37.70;;
16354;SDS011;8287;51.644;8.494;2023-02-25T02:37:30;43.53;;;40.85;;
16354;SDS011;8287;51.644;8.494;2023-02-25T02:40:10;34.95;;;32.10;;
16354;SDS011;8287;51.644;8.494;2023-02-25T02:42:47;35.63;;;33.75;;
16354;SDS011;8287;51.644;8.494;2023-02-25T02:45:23;40.60;;;38.30;;
16354;SDS011;8287;51.644;8.494;2023-02-25T02:48:01;37.00;;;34.15;;
16354;SDS011;8287;51.644;8.494;2023-02-25T02:50:31;40.03;;;37.47;;
16354;SDS011;8287;51.644;8.494;2023-02-25T02:53:02;38.60;;;36.40;;
16354;SDS011;8287;51.644;8.494;2023-02-25T02:55:33;36.50;;;33.85;;
16354;SDS011;8287;51.644;8.494;2023-02-25T02:58:07;34.17;;;32.00;;
16354;SDS011;8287;51.644;8.494;2023-02-25T03:00:38;32.78;;;30.70;;
16354;SDS011;8287;51.644;8.494;2023-02-25T03:03:12;34.30;;;32.30;;
16354;SDS011;8287;51.644;8.494;2023-02-25T03:05:43;38.20;;;35.80;;
16354;SDS011;8287;51.644;8.494;2023-02-25T03:08:14;33.55;;;31.33;;
16354;SDS011;8287;51.644;8.494;2023-02-25T03:10:45;34.97;;;33.33;;
16354;SDS011;8287;51.644;8.494;2023-02-25T03:13:13;36.75;;;34.72;;
16354;SDS011;8287;51.644;8.494;2023-02-25T03:15:40;36.50;;;34.80;;
16354;SDS011;8287;51.644;8.494;2023-02-25T03:18:09;39.38;;;37.17;;
16354;SDS011;8287;51.644;8.494;2023-02-25T03:20:43;35.47;;;33.88;;
16354;SDS011;8287;51.644;8.494;2023-02-25T03:23:17;37.15;;;33.65;;
16354;SDS011;8287;51.644;8.494;2023-02-25T03:25:47;35.78;;;33.35;;
16354;SDS011;8287;51.644;8.494;2023-02-25T03:28:20;36.95;;;34.83;;
16354;SDS011;8287;51.644;8.494;2023-02-25T03:30:53;36.05;;;33.97;;
16354;SDS011;8287;51.644;8.494;2023-02-25T03:33:28;32.75;;;31.05;;
16354;SDS011;8287;51.644;8.494;2023-02-25T03:35:59;35.88;;;33.70;;
16354;SDS011;8287;51.644;8.494;2023-02-25T03:38:30;36.60;;;34.70;;
16354;SDS011;8287;51.644;8.494;2023-02-25T03:41:02;39.92;;;37.72;;
16354;SDS011;8287;51.644;8.494;2023-02-25T03:43:32;38.30;;;35.58;;
16354;SDS011;8287;51.644;8.494;2023-02-25T03:46:03;37.65;;;34.75;;
16354;SDS011;8287;51.644;8.494;2023-02-25T03:48:33;36.42;;;34.38;;
16354;SDS011;8287;51.644;8.494;2023-02-25T03:51:03;38.13;;;36.08;;
16354;SDS011;8287;51.644;8.494;2023-02-25T03:53:31;40.33;;;38.22;;
16354;SDS011;8287;51.644;8.494;2023-02-25T03:56:01;40.70;;;38.65;;
16354;SDS011;8287;51.644;8.494;2023-02-25T03:58:31;36.88;;;34.78;;
16354;SDS011;8287;51.644;8.494;2023-02-25T04:00:58;36.75;;;34.05;;
16354;SDS011;8287;51.644;8.494;2023-02-25T04:03:27;41.53;;;39.15;;
16354;SDS011;8287;51.644;8.494;2023-02-25T04:05:55;42.97;;;38.92;;
16354;SDS011;8287;51.644;8.494;2023-02-25T04:08:22;39.90;;;37.42;;
16354;SDS011;8287;51.644;8.494;2023-02-25T04:10:48;37.55;;;35.38;;
16354;SDS011;8287;51.644;8.494;2023-02-25T04:13:16;40.15;;;37.72;;
16354;SDS011;8287;51.644;8.494;2023-02-25T04:15:45;42.33;;;39.17;;
16354;SDS011;8287;51.644;8.494;2023-02-25T04:18:12;42.72;;;39.88;;
16354;SDS011;8287;51.644;8.494;2023-02-25T04:20:39;39.63;;;37.42;;
16354;SDS011;8287;51.644;8.494;2023-02-25T04:23:08;41.45;;;38.90;;
16354;SDS011;8287;51.644;8.494;2023-02-25T04:25:38;37.10;;;34.83;;
16354;SDS011;8287;51.644;8.494;2023-02-25T04:28:05;38.38;;;36.17;;
16354;SDS011;8287;51.644;8.494;2023-02-25T04:30:31;39.70;;;37.38;;
16354;SDS011;8287;51.644;8.494;2023-02-25T04:32:58;36.63;;;34.13;;
16354;SDS011;8287;51.644;8.494;2023-02-25T04:35:25;43.50;;;40.83;;
16354;SDS011;8287;51.644;8.494;2023-02-25T04:37:51;38.80;;;36.85;;
16354;SDS011;8287;51.644;8.494;2023-02-25T04:40:20;36.28;;;34.33;;
16354;SDS011;8287;51.644;8.494;2023-02-25T04:42:48;34.53;;;32.58;;
16354;SDS011;8287;51.644;8.494;2023-02-25T04:45:14;38.55;;;35.30;;
16354;SDS011;8287;51.644;8.494;2023-02-25T04:47:41;35.30;;;32.80;;
16354;SDS011;8287;51.644;8.494;2023-02-25T04:50:09;36.50;;;34.58;;
16354;SDS011;8287;51.644;8.494;2023-02-25T04:52:36;38.78;;;36.40;;
16354;SDS011;8287;51.644;8.494;2023-02-25T04:55:03;34.03;;;32.40;;
16354;SDS011;8287;51.644;8.494;2023-02-25T04:57:32;37.83;;;35.47;;
16354;SDS011;8287;51.644;8.494;2023-02-25T04:59:59;37.65;;;35.67;;
16354;SDS011;8287;51.644;8.494;2023-02-25T05:02:26;37.75;;;35.95;;
16354;SDS011;8287;51.644;8.494;2023-02-25T05:04:52;38.60;;;36.33;;
16354;SDS011;8287;51.644;8.494;2023-02-25T05:07:19;34.83;;;33.15;;
16354;SDS011;8287;51.644;8.494;2023-02-25T05:09:46;36.88;;;35.03;;
16354;SDS011;8287;51.644;8.494;2023-02-25T05:12:12;38.35;;;36.10;;
16354;SDS011;8287;51.644;8.494;2023-02-25T05:14:40;38.75;;;36.53;;
16354;SDS011;8287;51.644;8.494;2023-02-25T05:17:07;35.58;;;33.97;;
16354;SDS011;8287;51.644;8.494;2023-02-25T05:19:33;38.72;;;36.60;;
16354;SDS011;8287;51.644;8.494;2023-02-25T05:22:00;39.88;;;37.50;;
16354;SDS011;8287;51.644;8.494;2023-02-25T05:24:27;36.70;;;34.17;;
16354;SDS011;8287;51.644;8.494;2023-02-25T05:26:54;36.55;;;34.83;;
16354;SDS011;8287;51.644;8.494;2023-02-25T05:29:20;35.80;;;33.70;;
16354;SDS011;8287;51.644;8.494;2023-02-25T05:31:48;39.08;;;36.47;;
16354;SDS011;8287;51.644;8.494;2023-02-25T05:34:16;37.35;;;35.42;;
16354;SDS011;8287;51.644;8.494;2023-02-25T05:36:43;42.40;;;40.13;;
16354;SDS011;8287;51.644;8.494;2023-02-25T05:39:10;41.17;;;38.72;;
16354;SDS011;8287;51.644;8.494;2023-02-25T05:41:38;38.60;;;36.47;;
16354;SDS011;8287;51.644;8.494;2023-02-25T05:44:04;46.97;;;44.33;;
16354;SDS011;8287;51.644;8.494;2023-02-25T05:46:31;38.90;;;36.88;;
16354;SDS011;8287;51.644;8.494;2023-02-25T05:48:59;38.45;;;36.33;;
16354;SDS011;8287;51.644;8.494;2023-02-25T05:51:26;40.97;;;38.85;;
16354;SDS011;8287;51.644;8.494;2023-02-25T05:53:53;38.25;;;36.25;;
16354;SDS011;8287;51.644;8.494;2023-02-25T05:56:22;38.47;;;36.35;;
16354;SDS011;8287;51.644;8.494;2023-02-25T05:58:51;36.17;;;34.50;;
16354;SDS011;8287;51.644;8.494;2023-02-25T06:01:19;38.35;;;35.78;;
16354;SDS011;8287;51.644;8.494;2023-02-25T06:03:48;38.22;;;36.22;;
16354;SDS011;8287;51.644;8.494;2023-02-25T06:06:18;38.03;;;35.95;;
16354;SDS011;8287;51.644;8.494;2023-02-25T06:08:47;35.65;;;33.78;;
16354;SDS011;8287;51.644;8.494;2023-02-25T06:11:16;34.83;;;33.35;;
16354;SDS011;8287;51.644;8.494;2023-02-25T06:13:43;37.30;;;35.10;;
16354;SDS011;8287;51.644;8.494;2023-02-25T06:16:12;36.08;;;34.08;;
16354;SDS011;8287;51.644;8.494;2023-02-25T06:18:39;36.67;;;34.78;;
16354;SDS011;8287;51.644;8.494;2023-02-25T06:21:06;36.95;;;35.25;;
16354;SDS011;8287;51.644;8.494;2023-02-25T06:23:36;43.13;;;40.95;;
16354;SDS011;8287;51.644;8.494;2023-02-25T06:26:05;36.28;;;34.38;;
16354;SDS011;8287;51.644;8.494;2023-02-25T06:28:33;36.83;;;34.40;;
16354;SDS011;8287;51.644;8.494;2023-02-25T06:31:00;35.95;;;34.00;;
16354;SDS011;8287;51.644;8.494;2023-02-25T06:33:27;36.40;;;34.47;;
16354;SDS011;8287;51.644;8.494;2023-02-25T06:35:55;36.40;;;34.40;;
16354;SDS011;8287;51.644;8.494;2023-02-25T06:38:22;39.15;;;37.25;;
16354;SDS011;8287;51.644;8.494;2023-02-25T06:40:51;34.85;;;33.03;;
16354;SDS011;8287;51.644;8.494;2023-02-25T06:43:17;37.80;;;35.83;;
16354;SDS011;8287;51.644;8.494;2023-02-25T06:45:44;35.75;;;33.70;;
16354;SDS011;8287;51.644;8.494;2023-02-25T06:48:11;42.17;;;39.67;;
16354;SDS011;8287;51.644;8.494;2023-02-25T06:50:37;41.13;;;38.95;;
16354;SDS011;8287;51.644;8.494;2023-02-25T06:53:05;39.30;;;37.63;;
16354;SDS011;8287;51.644;8.494;2023-02-25T06:55:32;39.70;;;37.70;;
16354;SDS011;8287;51.644;8.494;2023-02-25T06:58:00;40.05;;;38.25;;
16354;SDS011;8287;51.644;8.494;2023-02-25T07:00:26;41.88;;;39.55;;
16354;SDS011;8287;51.644;8.494;2023-02-25T07:02:53;39.13;;;37.33;;
16354;SDS011;8287;51.644;8.494;2023-02-25T07:05:19;42.38;;;40.28;;
16354;SDS011;8287;51.644;8.494;2023-02-25T07:07:46;42.05;;;39.63;;
16354;SDS011;8287;51.644;8.494;2023-02-25T07:10:12;49.75;;;47.42;;
16354;SDS011;8287;51.644;8.494;2023-02-25T07:12:39;39.22;;;37.20;;
16354;SDS011;8287;51.644;8.494;2023-02-25T07:15:08;41.08;;;39.22;;
16354;SDS011;8287;51.644;8.494;2023-02-25T07:17:35;42.72;;;40.17;;
16354;SDS011;8287;51.644;8.494;2023-02-25T07:20:02;45.42;;;43.28;;
16354;SDS011;8287;51.644;8.494;2023-02-25T07:22:29;42.38;;;40.15;;
16354;SDS011;8287;51.644;8.494;2023-02-25T07:24:56;42.60;;;40.15;;
16354;SDS011;8287;51.644;8.494;2023-02-25T07:27:22;46.08;;;42.45;;
16354;SDS011;8287;51.644;8.494;2023-02-25T07:29:49;42.05;;;39.25;;
16354;SDS011;8287;51.644;8.494;2023-02-25T07:32:17;43.55;;;41.13;;
16354;SDS011;8287;51.644;8.494;2023-02-25T07:34:44;41.65;;;39.25;;
16354;SDS011;8287;51.644;8.494;2023-02-25T07:37:11;44.40;;;42.10;;
16354;SDS011;8287;51.644;8.494;2023-02-25T07:39:37;44.05;;;41.72;;
16354;SDS011;8287;51.644;8.494;2023-02-25T07:42:04;44.78;;;42.45;;
16354;SDS011;8287;51.644;8.494;2023-02-25T07:44:30;46.80;;;43.28;;
16354;SDS011;8287;51.644;8.494;2023-02-25T07:46:57;41.35;;;39.13;;
16354;SDS011;8287;51.644;8.494;2023-02-25T07:49:25;42.55;;;40.58;;
16354;SDS011;8287;51.644;8.494;2023-02-25T07:51:52;41.35;;;38.90;;
16354;SDS011;8287;51.644;8.494;2023-02-25T07:54:19;40.22;;;38.05;;
16354;SDS011;8287;51.644;8.494;2023-02-25T07:56:46;39.90;;;37.60;;
16354;SDS011;8287;51.644;8.494;2023-02-25T07:59:14;40.58;;;38.00;;
16354;SDS011;8287;51.644;8.494;2023-02-25T08:01:41;45.72;;;43.35;;
16354;SDS011;8287;51.644;8.494;2023-02-25T08:04:08;41.15;;;38.53;;
16354;SDS011;8287;51.644;8.494;2023-02-25T08:06:38;45.08;;;42.25;;
16354;SDS011;8287;51.644;8.494;2023-02-25T08:09:06;44.13;;;41.15;;
16354;SDS011;8287;51.644;8.494;2023-02-25T08:11:35;61.47;;;56.97;;
16354;SDS011;8287;51.644;8.494;2023-02-25T08:14:01;44.00;;;41.65;;
16354;SDS011;8287;51.644;8.494;2023-02-25T08:16:29;44.15;;;41.20;;
16354;SDS011;8287;51.644;8.494;2023-02-25T08:18:57;46.95;;;43.55;;
16354;SDS011;8287;51.644;8.494;2023-02-25T08:21:24;45.38;;;42.70;;
16354;SDS011;8287;51.644;8.494;2023-02-25T08:23:52;45.35;;;42.28;;
16354;SDS011;8287;51.644;8.494;2023-02-25T08:26:20;43.00;;;40.17;;
16354;SDS011;8287;51.644;8.494;2023-02-25T08:28:48;42.20;;;39.85;;
16354;SDS011;8287;51.644;8.494;2023-02-25T08:31:14;41.22;;;39.00;;
16354;SDS011;8287;51.644;8.494;2023-02-25T08:33:42;42.85;;;40.85;;
16354;SDS011;8287;51.644;8.494;2023-02-25T08:36:14;37.25;;;35.30;;
16354;SDS011;8287;51.644;8.494;2023-02-25T08:38:42;39.70;;;37.17;;
16354;SDS011;8287;51.644;8.494;2023-02-25T08:41:10;38.55;;;36.40;;
16354;SDS011;8287;51.644;8.494;2023-02-25T08:43:37;38.80;;;36.30;;
16354;SDS011;8287;51.644;8.494;2023-02-25T08:46:05;37.70;;;35.10;;
16354;SDS011;8287;51.644;8.494;2023-02-25T08:48:31;35.33;;;33.00;;
16354;SDS011;8287;51.644;8.494;2023-02-25T08:51:00;37.70;;;34.28;;
16354;SDS011;8287;51.644;8.494;2023-02-25T08:53:28;41.53;;;38.33;;
16354;SDS011;8287;51.644;8.494;2023-02-25T08:55:54;44.28;;;41.28;;
16354;SDS011;8287;51.644;8.494;2023-02-25T08:58:22;35.67;;;32.80;;
16354;SDS011;8287;51.644;8.494;2023-02-25T09:00:49;41.33;;;37.90;;
16354;SDS011;8287;51.644;8.494;2023-02-25T09:03:19;35.85;;;32.95;;
16354;SDS011;8287;51.644;8.494;2023-02-25T09:05:49;35.30;;;33.30;;
16354;SDS011;8287;51.644;8.494;2023-02-25T09:08:17;36.25;;;34.15;;
16354;SDS011;8287;51.644;8.494;2023-02-25T09:10:43;36.58;;;34.63;;
16354;SDS011;8287;51.644;8.494;2023-02-25T09:13:10;36.28;;;34.35;;
16354;SDS011;8287;51.644;8.494;2023-02-25T09:15:38;36.92;;;34.55;;
16354;SDS011;8287;51.644;8.494;2023-02-25T09:18:05;35.47;;;33.38;;
16354;SDS011;8287;51.644;8.494;2023-02-25T09:20:32;36.33;;;34.45;;
16354;SDS011;8287;51.644;8.494;2023-02-25T09:22:59;31.02;;;29.15;;
16354;SDS011;8287;51.644;8.494;2023-02-25T09:25:25;35.88;;;33.45;;
16354;SDS011;8287;51.644;8.494;2023-02-25T09:27:53;104.25;;;95.03;;
16354;SDS011;8287;51.644;8.494;2023-02-25T09:30:20;42.85;;;39.88;;
16354;SDS011;8287;51.644;8.494;2023-02-25T09:32:48;39.50;;;36.60;;
16354;SDS011;8287;51.644;8.494;2023-02-25T09:35:14;44.28;;;40.85;;
16354;SDS011;8287;51.644;8.494;2023-02-25T09:37:41;37.70;;;35.72;;
16354;SDS011;8287;51.644;8.494;2023-02-25T09:40:08;36.30;;;33.30;;
16354;SDS011;8287;51.644;8.494;2023-02-25T09:42:43;48.38;;;44.80;;
16354;SDS011;8287;51.644;8.494;2023-02-25T09:45:15;39.13;;;37.03;;
16354;SDS011;8287;51.644;8.494;2023-02-25T09:47:44;35.08;;;32.80;;
16354;SDS011;8287;51.644;8.494;2023-02-25T09:50:16;51.50;;;48.67;;
16354;SDS011;8287;51.644;8.494;2023-02-25T09:52:49;40.83;;;38.40;;
16354;SDS011;8287;51.644;8.494;2023-02-25T09:55:27;47.40;;;44.97;;
16354;SDS011;8287;51.644;8.494;2023-02-25T09:57:58;37.88;;;34.63;;
16354;SDS011;8287;51.644;8.494;2023-02-25T10:00:28;43.67;;;41.53;;
16354;SDS011;8287;51.644;8.494;2023-02-25T10:03:04;47.90;;;45.60;;
16354;SDS011;8287;51.644;8.494;2023-02-25T10:05:38;35.30;;;33.40;;
16354;SDS011;8287;51.644;8.494;2023-02-25T10:08:11;36.75;;;34.75;;
16354;SDS011;8287;51.644;8.494;2023-02-25T10:10:48;35.17;;;33.50;;
16354;SDS011;8287;51.644;8.494;2023-02-25T10:13:25;46.38;;;43.72;;
16354;SDS011;8287;51.644;8.494;2023-02-25T10:16:00;65.65;;;61.05;;
16354;SDS011;8287;51.644;8.494;2023-02-25T10:18:50;31.83;;;30.42;;
16354;SDS011;8287;51.644;8.494;2023-02-25T10:21:28;80.82;;;76.00;;
16354;SDS011;8287;51.644;8.494;2023-02-25T10:24:23;51.35;;;48.83;;
16354;SDS011;8287;51.644;8.494;2023-02-25T10:26:56;34.20;;;32.60;;
16354;SDS011;8287;51.644;8.494;2023-02-25T10:29:29;35.40;;;33.60;;
16354;SDS011;8287;51.644;8.494;2023-02-25T10:32:00;35.72;;;34.10;;
16354;SDS011;8287;51.644;8.494;2023-02-25T10:34:42;36.83;;;34.83;;
16354;SDS011;8287;51.644;8.494;2023-02-25T10:37:10;38.58;;;36.08;;
16354;SDS011;8287;51.644;8.494;2023-02-25T10:39:42;51.70;;;49.03;;
16354;SDS011;8287;51.644;8.494;2023-02-25T10:42:12;54.03;;;50.92;;
16354;SDS011;8287;51.644;8.494;2023-02-25T10:44:40;31.65;;;30.15;;
16354;SDS011;8287;51.644;8.494;2023-02-25T10:47:08;30.42;;;29.13;;
16354;SDS011;8287;51.644;8.494;2023-02-25T10:49:41;36.90;;;34.95;;
16354;SDS011;8287;51.644;8.494;2023-02-25T10:52:50;32.35;;;30.77;;
16354;SDS011;8287;51.644;8.494;2023-02-25T10:55:26;45.50;;;41.58;;
16354;SDS011;8287;51.644;8.494;2023-02-25T10:58:04;28.75;;;26.90;;
16354;SDS011;8287;51.644;8.494;2023-02-25T11:00:33;27.13;;;25.83;;
16354;SDS011;8287;51.644;8.494;2023-02-25T11:03:00;25.27;;;24.13;;
16354;SDS011;8287;51.644;8.494;2023-02-25T11:05:34;30.67;;;29.13;;
16354;SDS011;8287;51.644;8.494;2023-02-25T11:08:02;41.33;;;38.97;;
16354;SDS011;8287;51.644;8.494;2023-02-25T11:10:32;30.77;;;29.38;;
16354;SDS011;8287;51.644;8.494;2023-02-25T11:12:59;27.02;;;25.73;;
16354;SDS011;8287;51.644;8.494;2023-02-25T11:15:32;36.30;;;34.80;;
16354;SDS011;8287;51.644;8.494;2023-02-25T11:18:05;30.13;;;28.17;;
16354;SDS011;8287;51.644;8.494;2023-02-25T11:20:44;31.30;;;30.00;;
16354;SDS011;8287;51.644;8.494;2023-02-25T11:23:18;31.20;;;29.40;;
16354;SDS011;8287;51.644;8.494;2023-02-25T11:25:47;32.40;;;30.73;;
16354;SDS011;8287;51.644;8.494;2023-02-25T11:28:16;36.25;;;34.35;;
16354;SDS011;8287;51.644;8.494;2023-02-25T11:30:48;51.78;;;48.72;;
16354;SDS011;8287;51.644;8.494;2023-02-25T11:33:18;29.10;;;27.65;;
16354;SDS011;8287;51.644;8.494;2023-02-25T11:35:54;26.67;;;25.58;;
16354;SDS011;8287;51.644;8.494;2023-02-25T11:38:24;30.27;;;28.80;;
16354;SDS011;8287;51.644;8.494;2023-02-25T11:40:53;27.85;;;26.58;;
16354;SDS011;8287;51.644;8.494;2023-02-25T11:43:21;27.63;;;26.42;;
16354;SDS011;8287;51.644;8.494;2023-02-25T11:45:50;29.73;;;28.20;;
16354;SDS011;8287;51.644;8.494;2023-02-25T11:48:21;30.02;;;28.83;;
16354;SDS011;8287;51.644;8.494;2023-02-25T11:50:53;28.45;;;27.20;;
16354;SDS011;8287;51.644;8.494;2023-02-25T11:53:38;29.48;;;27.90;;
16354;SDS011;8287;51.644;8.494;2023-02-25T11:56:14;24.27;;;22.83;;
16354;SDS011;8287;51.644;8.494;2023-02-25T11:58:53;26.35;;;25.02;;
16354;SDS011;8287;51.644;8.494;2023-02-25T12:01:37;28.55;;;26.85;;
16354;SDS011;8287;51.644;8.494;2023-02-25T12:04:16;26.40;;;25.25;;
16354;SDS011;8287;51.644;8.494;2023-02-25T12:06:59;26.65;;;25.30;;
16354;SDS011;8287;51.644;8.494;2023-02-25T12:13:00;27.23;;;26.02;;
16354;SDS011;8287;51.644;8.494;2023-02-25T12:15:52;86.93;;;78.20;;
16354;SDS011;8287;51.644;8.494;2023-02-25T12:18:50;24.45;;;23.35;;
16354;SDS011;8287;51.644;8.494;2023-02-25T12:21:46;23.98;;;22.77;;
16354;SDS011;8287;51.644;8.494;2023-02-25T12:24:40;22.05;;;21.05;;
16354;SDS011;8287;51.644;8.494;2023-02-25T12:27:56;22.25;;;21.33;;
16354;SDS011;8287;51.644;8.494;2023-02-25T12:30:46;27.38;;;25.98;;
16354;SDS011;8287;51.644;8.494;2023-02-25T12:33:31;21.95;;;20.85;;
16354;SDS011;8287;51.644;8.494;2023-02-25T12:42:06;31.98;;;30.35;;
16354;SDS011;8287;51.644;8.494;2023-02-25T12:44:51;25.65;;;24.00;;
16354;SDS011;8287;51.644;8.494;2023-02-25T12:47:48;23.17;;;22.13;;
16354;SDS011;8287;51.644;8.494;2023-02-25T12:50:41;23.80;;;22.75;;
16354;SDS011;8287;51.644;8.494;2023-02-25T12:53:30;21.98;;;20.73;;
16354;SDS011;8287;51.644;8.494;2023-02-25T12:56:21;24.83;;;23.55;;
16354;SDS011;8287;51.644;8.494;2023-02-25T12:59:09;21.52;;;20.42;;
16354;SDS011;8287;51.644;8.494;2023-02-25T13:04:58;20.98;;;19.98;;
16354;SDS011;8287;51.644;8.494;2023-02-25T13:10:22;18.65;;;17.83;;
16354;SDS011;8287;51.644;8.494;2023-02-25T13:13:18;18.60;;;17.90;;
16354;SDS011;8287;51.644;8.494;2023-02-25T13:24:48;54.65;;;52.05;;
16354;SDS011;8287;51.644;8.494;2023-02-25T13:50:52;7.47;;;2.10;;
16354;SDS011;8287;51.644;8.494;2023-02-25T14:01:40;1.25;;;0.60;;
16354;SDS011;8287;51.644;8.494;2023-02-25T14:04:23;4.88;;;0.70;;
16354;SDS011;8287;51.644;8.494;2023-02-25T14:07:17;1.67;;;0.70;;
16354;SDS011;8287;51.644;8.494;2023-02-25T14:10:30;2.08;;;0.65;;
16354;SDS011;8287;51.644;8.494;2023-02-25T14:13:12;1.60;;;0.45;;
16354;SDS011;8287;51.644;8.494;2023-02-25T14:16:05;0.32;;;0.30;;
16354;SDS011;8287;51.644;8.494;2023-02-25T14:18:55;4.20;;;0.90;;
16354;SDS011;8287;51.644;8.494;2023-02-25T14:21:36;0.82;;;0.75;;
16354;SDS011;8287;51.644;8.494;2023-02-25T14:24:14;2.72;;;0.80;;
16354;SDS011;8287;51.644;8.494;2023-02-25T14:26:48;0.63;;;0.63;;
16354;SDS011;8287;51.644;8.494;2023-02-25T14:29:26;0.82;;;0.40;;
16354;SDS011;8287;51.644;8.494;2023-02-25T14:34:54;0.47;;;0.47;;
16354;SDS011;8287;51.644;8.494;2023-02-25T14:37:39;3.60;;;0.50;;
16354;SDS011;8287;51.644;8.494;2023-02-25T14:40:16;1.30;;;0.65;;
16354;SDS011;8287;51.644;8.494;2023-02-25T14:43:02;1.20;;;0.45;;
16354;SDS011;8287;51.644;8.494;2023-02-25T14:45:42;1.73;;;0.65;;
16354;SDS011;8287;51.644;8.494;2023-02-25T14:48:13;1.02;;;0.57;;
16354;SDS011;8287;51.644;8.494;2023-02-25T14:50:47;1.75;;;0.80;;
16354;SDS011;8287;51.644;8.494;2023-02-25T14:53:25;0.68;;;0.68;;
16354;SDS011;8287;51.644;8.494;2023-02-25T14:56:13;0.68;;;0.30;;
16354;SDS011;8287;51.644;8.494;2023-02-25T15:02:00;2.67;;;0.80;;
16354;SDS011;8287;51.644;8.494;2023-02-25T15:04:42;0.93;;;0.82;;
16354;SDS011;8287;51.644;8.494;2023-02-25T15:10:22;1.35;;;0.82;;
16354;SDS011;8287;51.644;8.494;2023-02-25T15:13:00;1.42;;;0.90;;
16354;SDS011;8287;51.644;8.494;2023-02-25T15:15:51;1.35;;;0.80;;
16354;SDS011;8287;51.644;8.494;2023-02-25T15:21:43;2.03;;;0.73;;
16354;SDS011;8287;51.644;8.494;2023-02-25T15:29:58;2.92;;;0.90;;
16354;SDS011;8287;51.644;8.494;2023-02-25T15:32:26;1.02;;;0.88;;
16354;SDS011;8287;51.644;8.494;2023-02-25T15:34:57;2.10;;;1.23;;
16354;SDS011;8287;51.644;8.494;2023-02-25T15:37:26;3.28;;;1.02;;
16354;SDS011;8287;51.644;8.494;2023-02-25T15:39:57;4.28;;;0.95;;
16354;SDS011;8287;51.644;8.494;2023-02-25T15:42:45;1.92;;;0.93;;
16354;SDS011;8287;51.644;8.494;2023-02-25T15:45:28;2.28;;;0.90;;
16354;SDS011;8287;51.644;8.494;2023-02-25T15:50:54;2.25;;;1.10;;
16354;SDS011;8287;51.644;8.494;2023-02-25T16:05:17;2.80;;;1.20;;
16354;SDS011;8287;51.644;8.494;2023-02-25T16:07:48;1.45;;;0.60;;
16354;SDS011;8287;51.644;8.494;2023-02-25T16:10:25;3.33;;;0.93;;
16354;SDS011;8287;51.644;8.494;2023-02-25T16:12:57;1.35;;;0.80;;
16354;SDS011;8287;51.644;8.494;2023-02-25T16:15:26;0.73;;;0.73;;
16354;SDS011;8287;51.644;8.494;2023-02-25T16:17:58;0.90;;;0.73;;
16354;SDS011;8287;51.644;8.494;2023-02-25T16:20:41;3.50;;;1.15;;
16354;SDS011;8287;51.644;8.494;2023-02-25T16:23:12;1.00;;;0.85;;
16354;SDS011;8287;51.644;8.494;2023-02-25T16:25:41;1.92;;;0.95;;
16354;SDS011;8287;51.644;8.494;2023-02-25T16:28:19;2.50;;;0.80;;
16354;SDS011;8287;51.644;8.494;2023-02-25T16:30:57;1.83;;;0.90;;
16354;SDS011;8287;51.644;8.494;2023-02-25T16:33:29;6.32;;;1.80;;
16354;SDS011;8287;51.644;8.494;2023-02-25T16:36:01;2.10;;;0.80;;
16354;SDS011;8287;51.644;8.494;2023-02-25T16:38:37;2.60;;;1.05;;
16354;SDS011;8287;51.644;8.494;2023-02-25T16:41:10;1.02;;;0.90;;